createdAt,value
2019-02-28T00:00:55.956Z,8.16
2019-02-28T00:03:22.461Z,8.16
2019-02-28T00:05:48.736Z,8.14
2019-02-28T00:08:16.005Z,8.01
2019-02-28T00:10:42.119Z,7.95
2019-02-28T00:13:08.338Z,7.98
2019-02-28T00:15:34.537Z,7.91
2019-02-28T00:18:00.743Z,7.82
2019-02-28T00:20:29.151Z,7.76
2019-02-28T00:22:55.012Z,7.71
2019-02-28T00:25:21.155Z,7.73
2019-02-28T00:27:47.412Z,7.79
2019-02-28T00:30:14.789Z,7.78
2019-02-28T00:32:40.947Z,7.77
2019-02-28T00:35:12.799Z,7.75
2019-02-28T00:37:35.782Z,7.74
2019-02-28T00:40:02.300Z,7.79
2019-02-28T00:42:29.737Z,7.81
2019-02-28T00:44:55.895Z,7.86
2019-02-28T00:47:22.180Z,7.85
2019-02-28T00:49:48.468Z,7.87
2019-02-28T00:52:14.698Z,7.87
2019-02-28T00:54:44.348Z,7.87
2019-02-28T00:57:09.934Z,7.87
2019-02-28T00:59:36.218Z,7.83
2019-02-28T01:02:02.625Z,7.86
2019-02-28T01:04:30.028Z,7.87
2019-02-28T01:06:56.952Z,7.86
2019-02-28T01:09:23.098Z,7.87
2019-02-28T01:11:49.300Z,7.90
2019-02-28T01:14:15.564Z,7.89
2019-02-28T01:16:41.790Z,7.90
2019-02-28T01:19:09.070Z,7.92
2019-02-28T01:21:36.134Z,7.91
2019-02-28T01:24:02.315Z,7.96
2019-02-28T01:26:30.521Z,8.05
2019-02-28T01:29:01.525Z,8.10
2019-02-28T01:31:24.822Z,8.11
2019-02-28T01:33:51.039Z,8.17
2019-02-28T01:36:17.140Z,8.25
2019-02-28T01:38:44.525Z,8.28
2019-02-28T01:41:11.186Z,8.35
2019-02-28T01:43:38.167Z,8.42
2019-02-28T01:46:04.520Z,8.49
2019-02-28T01:48:30.716Z,8.73
2019-02-28T01:50:56.833Z,8.84
2019-02-28T01:53:23.056Z,8.85
2019-02-28T01:55:49.179Z,8.88
2019-02-28T01:58:16.874Z,8.94
2019-02-28T02:00:43.484Z,8.94
2019-02-28T02:03:10.196Z,8.97
2019-02-28T02:05:36.415Z,9.05
2019-02-28T02:08:06.538Z,9.10
2019-02-28T02:10:31.015Z,9.27
2019-02-28T02:12:57.186Z,9.37
2019-02-28T02:15:23.410Z,9.49
2019-02-28T02:17:49.647Z,9.60
2019-02-28T02:20:16.081Z,9.54
2019-02-28T02:22:44.613Z,9.44
2019-02-28T02:25:10.913Z,9.42
2019-02-28T02:27:37.342Z,9.35
2019-02-28T02:30:16.423Z,9.36
2019-02-28T02:32:43.808Z,9.39
2019-02-28T02:35:10.272Z,9.46
2019-02-28T02:37:36.650Z,9.46
2019-02-28T02:40:09.403Z,9.50
2019-02-28T02:42:35.625Z,9.47
2019-02-28T02:45:04.931Z,9.48
2019-02-28T02:47:32.477Z,9.43
2019-02-28T02:49:58.254Z,9.50
2019-02-28T02:52:29.981Z,9.49
2019-02-28T02:54:53.024Z,9.41
2019-02-28T02:57:19.436Z,9.41
2019-02-28T02:59:45.541Z,9.45
2019-02-28T03:02:11.857Z,9.43
2019-02-28T03:04:38.011Z,9.34
2019-02-28T03:07:04.407Z,9.35
2019-02-28T03:09:30.658Z,9.35
2019-02-28T03:11:57.725Z,9.33
2019-02-28T03:14:24.956Z,9.27
2019-02-28T03:16:51.054Z,9.27
2019-02-28T03:19:17.326Z,9.25
2019-02-28T03:21:47.762Z,9.19
2019-02-28T03:24:15.206Z,9.18
2019-02-28T03:26:41.895Z,9.18
2019-02-28T03:29:08.937Z,9.29
2019-02-28T03:31:35.364Z,9.32
2019-02-28T03:34:10.039Z,9.30
2019-02-28T03:36:30.032Z,9.33
2019-02-28T03:38:56.411Z,9.41
2019-02-28T03:41:22.712Z,9.42
2019-02-28T03:43:48.931Z,9.42
2019-02-28T03:46:15.233Z,9.36
2019-02-28T03:48:41.576Z,9.29
2019-02-28T03:51:07.705Z,9.28
2019-02-28T03:53:33.913Z,9.24
2019-02-28T03:56:00.082Z,9.19
2019-02-28T03:58:26.264Z,9.19
2019-02-28T04:00:52.629Z,9.17
2019-02-28T04:03:19.018Z,9.15
2019-02-28T04:05:45.359Z,9.09
2019-02-28T04:08:11.528Z,9.09
2019-02-28T04:10:37.823Z,9.09
2019-02-28T04:13:04.004Z,9.04
2019-02-28T04:15:30.316Z,8.98
2019-02-28T04:17:57.728Z,8.92
2019-02-28T04:20:23.986Z,8.87
2019-02-28T04:22:50.370Z,8.82
2019-02-28T04:25:22.833Z,8.78
2019-02-28T04:27:44.722Z,8.75
2019-02-28T04:30:12.071Z,8.77
2019-02-28T04:32:38.304Z,8.74
2019-02-28T04:35:04.735Z,8.73
2019-02-28T04:37:30.926Z,8.70
2019-02-28T04:39:57.195Z,8.66
2019-02-28T04:42:23.414Z,8.66
2019-02-28T04:44:51.956Z,8.62
2019-02-28T04:47:17.694Z,8.58
2019-02-28T04:49:43.943Z,8.55
2019-02-28T04:52:11.769Z,8.58
2019-02-28T04:54:38.225Z,8.57
2019-02-28T04:57:04.440Z,8.55
2019-02-28T04:59:31.560Z,8.53
2019-02-28T05:01:58.827Z,8.47
2019-02-28T05:04:25.007Z,8.43
2019-02-28T05:06:52.165Z,8.46
2019-02-28T05:09:19.254Z,8.47
2019-02-28T05:11:45.505Z,8.43
2019-02-28T05:14:11.607Z,8.42
2019-02-28T05:16:37.814Z,8.40
2019-02-28T05:19:04.019Z,8.36
2019-02-28T05:21:30.273Z,8.33
2019-02-28T05:23:56.398Z,8.32
2019-02-28T05:26:23.508Z,8.27
2019-02-28T05:28:50.703Z,8.25
2019-02-28T05:31:16.860Z,8.26
2019-02-28T05:33:44.135Z,8.25
2019-02-28T05:36:10.288Z,8.22
2019-02-28T05:38:36.399Z,8.20
2019-02-28T05:41:02.633Z,8.13
2019-02-28T05:43:29.190Z,8.09
2019-02-28T05:45:56.963Z,8.09
2019-02-28T05:48:23.199Z,8.10
2019-02-28T05:50:52.821Z,8.09
2019-02-28T05:53:17.419Z,8.03
2019-02-28T05:55:44.686Z,7.99
2019-02-28T05:58:10.923Z,7.94
2019-02-28T06:00:37.777Z,7.86
2019-02-28T06:03:04.065Z,7.81
2019-02-28T06:05:30.213Z,7.81
2019-02-28T06:07:56.415Z,7.79
2019-02-28T06:10:24.673Z,7.76
2019-02-28T06:12:51.796Z,7.74
2019-02-28T06:15:18.069Z,7.73
2019-02-28T06:17:44.315Z,7.73
2019-02-28T06:20:11.169Z,7.68
2019-02-28T06:22:37.559Z,7.60
2019-02-28T06:25:06.301Z,7.56
2019-02-28T06:27:41.195Z,7.57
2019-02-28T06:30:00.700Z,7.57
2019-02-28T06:32:27.438Z,7.55
2019-02-28T06:34:54.721Z,7.56
2019-02-28T06:37:20.869Z,7.57
2019-02-28T06:39:47.079Z,7.58
2019-02-28T06:42:13.260Z,7.63
2019-02-28T06:44:39.420Z,7.67
2019-02-28T06:47:05.668Z,7.69
2019-02-28T06:49:32.041Z,7.68
2019-02-28T06:51:58.237Z,7.70
2019-02-28T06:54:24.486Z,7.73
2019-02-28T06:56:54.004Z,7.74
2019-02-28T06:59:18.870Z,7.69
2019-02-28T07:01:45.165Z,7.74
2019-02-28T07:04:14.442Z,7.79
2019-02-28T07:06:39.533Z,7.82
2019-02-28T07:09:05.818Z,7.80
2019-02-28T07:11:32.797Z,7.81
2019-02-28T07:13:59.012Z,7.84
2019-02-28T07:16:25.245Z,7.89
2019-02-28T07:18:53.793Z,7.90
2019-02-28T07:21:19.594Z,7.92
2019-02-28T07:23:45.830Z,7.91
2019-02-28T07:26:11.929Z,7.93
2019-02-28T07:28:38.238Z,7.88
2019-02-28T07:31:04.424Z,7.88
2019-02-28T07:33:30.626Z,7.90
2019-02-28T07:35:56.731Z,7.92
2019-02-28T07:38:25.638Z,7.97
2019-02-28T07:40:51.008Z,8.01
2019-02-28T07:43:17.189Z,8.05
2019-02-28T07:45:43.369Z,8.11
2019-02-28T07:48:09.588Z,8.13
2019-02-28T07:50:35.881Z,8.19
2019-02-28T07:53:02.161Z,8.25
2019-02-28T07:55:30.476Z,8.28
2019-02-28T07:57:56.755Z,8.34
2019-02-28T08:00:24.041Z,8.43
2019-02-28T08:02:50.164Z,8.46
2019-02-28T08:05:16.802Z,8.50
2019-02-28T08:07:43.077Z,8.55
2019-02-28T08:10:18.473Z,8.60
2019-02-28T08:12:44.758Z,8.66
2019-02-28T08:15:20.974Z,8.74
2019-02-28T08:17:45.007Z,8.79
2019-02-28T08:20:11.512Z,8.85
2019-02-28T08:22:37.940Z,8.92
2019-02-28T08:25:08.755Z,9.00
2019-02-28T08:27:35.188Z,9.07
2019-02-28T08:30:01.367Z,9.18
2019-02-28T08:32:28.117Z,9.22
2019-02-28T08:34:55.587Z,9.28
2019-02-28T08:37:24.652Z,9.36
2019-02-28T08:39:50.971Z,9.43
2019-02-28T08:42:17.064Z,9.54
2019-02-28T08:44:43.294Z,9.68
2019-02-28T08:47:09.417Z,9.78
2019-02-28T08:49:42.179Z,9.91
2019-02-28T08:52:05.622Z,10.05
2019-02-28T08:54:31.991Z,10.19
2019-02-28T08:56:58.217Z,10.31
2019-02-28T08:59:24.441Z,10.48
2019-02-28T09:01:50.567Z,10.61
2019-02-28T09:04:16.811Z,10.80
2019-02-28T09:06:42.954Z,10.91
2019-02-28T09:09:09.629Z,11.08
2019-02-28T09:11:35.858Z,11.27
2019-02-28T09:14:02.142Z,11.40
2019-02-28T09:16:28.695Z,11.52
2019-02-28T09:19:00.482Z,11.72
2019-02-28T09:21:22.979Z,11.90
2019-02-28T09:23:49.131Z,12.11
2019-02-28T09:26:15.555Z,12.31
2019-02-28T09:28:44.356Z,12.42
2019-02-28T09:31:10.040Z,12.47
2019-02-28T09:33:36.206Z,12.62
2019-02-28T09:36:02.613Z,12.79
2019-02-28T09:38:30.099Z,12.92
2019-02-28T09:40:56.372Z,13.01
2019-02-28T09:43:23.843Z,13.09
2019-02-28T09:45:51.036Z,13.34
2019-02-28T09:48:17.213Z,13.49
2019-02-28T09:50:43.340Z,13.54
2019-02-28T09:53:15.537Z,13.54
2019-02-28T09:55:40.003Z,13.72
2019-02-28T09:58:06.118Z,13.83
2019-02-28T10:00:33.464Z,13.90
2019-02-28T10:02:59.569Z,14.08
2019-02-28T10:05:25.912Z,14.25
2019-02-28T10:07:52.308Z,14.36
2019-02-28T10:10:22.007Z,14.31
2019-02-28T10:12:48.530Z,14.35
2019-02-28T10:15:16.801Z,14.54
2019-02-28T10:17:43.110Z,14.85
2019-02-28T10:20:16.373Z,15.01
2019-02-28T10:22:44.361Z,15.18
2019-02-28T10:25:13.365Z,15.33
2019-02-28T10:27:39.790Z,15.42
2019-02-28T10:30:18.173Z,15.56
2019-02-28T10:32:49.278Z,15.70
2019-02-28T10:35:21.869Z,15.85
2019-02-28T10:37:48.138Z,16.00
2019-02-28T10:40:17.731Z,16.18
2019-02-28T10:42:45.030Z,16.48
2019-02-28T10:45:13.431Z,16.87
2019-02-28T10:47:46.875Z,17.23
2019-02-28T10:50:32.154Z,17.50
2019-02-28T10:52:55.508Z,17.80
2019-02-28T10:55:22.444Z,18.22
2019-02-28T10:57:49.830Z,18.62
2019-02-28T11:00:23.979Z,19.22
2019-02-28T11:02:53.556Z,19.22
2019-02-28T11:05:21.638Z,19.27
2019-02-28T11:07:48.077Z,19.27
2019-02-28T11:10:14.509Z,19.75
2019-02-28T11:12:40.720Z,19.95
2019-02-28T11:15:10.424Z,20.26
2019-02-28T11:17:36.365Z,20.47
2019-02-28T11:20:06.377Z,20.77
2019-02-28T11:22:32.683Z,20.97
2019-02-28T11:25:01.024Z,21.22
2019-02-28T11:27:27.582Z,21.52
2019-02-28T11:29:53.969Z,21.80
2019-02-28T11:32:20.670Z,22.09
2019-02-28T11:34:48.687Z,22.38
2019-02-28T11:37:15.245Z,22.60
2019-02-28T11:39:41.638Z,22.75
2019-02-28T11:42:10.999Z,23.33
2019-02-28T11:44:37.458Z,23.35
2019-02-28T11:47:03.778Z,23.40
2019-02-28T11:49:30.091Z,23.69
2019-02-28T11:51:56.365Z,23.79
2019-02-28T11:54:22.740Z,23.95
2019-02-28T11:56:49.262Z,23.91
2019-02-28T11:59:15.597Z,23.82
2019-02-28T12:01:42.450Z,23.96
2019-02-28T12:04:10.130Z,23.97
2019-02-28T12:06:36.309Z,23.91
2019-02-28T12:09:04.385Z,24.02
2019-02-28T12:11:33.536Z,24.22
2019-02-28T12:14:00.333Z,24.28
2019-02-28T12:16:26.660Z,23.98
2019-02-28T12:18:52.845Z,23.85
2019-02-28T12:21:19.081Z,23.54
2019-02-28T12:23:45.206Z,23.60
2019-02-28T12:26:14.391Z,24.09
2019-02-28T12:28:39.576Z,24.37
2019-02-28T12:31:06.506Z,24.77
2019-02-28T12:33:32.702Z,24.72
2019-02-28T12:35:59.026Z,24.70
2019-02-28T12:38:28.297Z,24.76
2019-02-28T12:40:53.623Z,24.95
2019-02-28T12:43:20.023Z,25.29
2019-02-28T12:45:47.466Z,25.91
2019-02-28T12:48:14.690Z,25.87
2019-02-28T12:50:41.234Z,25.71
2019-02-28T12:53:09.008Z,25.78
2019-02-28T12:55:38.785Z,26.02
2019-02-28T12:58:04.102Z,25.86
2019-02-28T13:00:33.556Z,25.44
2019-02-28T13:02:59.852Z,25.27
2019-02-28T13:05:26.279Z,25.33
2019-02-28T13:07:52.562Z,25.03
2019-02-28T13:10:26.756Z,24.14
2019-02-28T13:12:49.881Z,23.57
2019-02-28T13:15:17.470Z,22.93
2019-02-28T13:17:44.063Z,22.36
2019-02-28T13:22:38.420Z,21.53
2019-02-28T13:25:07.395Z,21.43
2019-02-28T13:27:33.655Z,21.32
2019-02-28T13:29:59.768Z,21.36
2019-02-28T13:32:25.997Z,21.09
2019-02-28T13:34:52.111Z,20.85
2019-02-28T13:37:18.440Z,20.89
2019-02-28T13:39:44.801Z,21.20
2019-02-28T13:42:12.266Z,20.96
2019-02-28T13:44:38.579Z,20.59
2019-02-28T13:47:09.438Z,20.63
2019-02-28T13:49:33.028Z,20.91
2019-02-28T13:51:59.320Z,20.79
2019-02-28T13:54:26.950Z,20.79
2019-02-28T13:56:53.323Z,20.78
2019-02-28T13:59:19.553Z,20.37
2019-02-28T14:01:45.668Z,20.05
2019-02-28T14:04:11.888Z,19.62
2019-02-28T14:06:38.070Z,19.07
2019-02-28T14:09:05.895Z,18.66
2019-02-28T14:11:32.216Z,18.20
2019-02-28T14:13:58.523Z,17.92
2019-02-28T14:16:26.924Z,17.75
2019-02-28T14:18:54.647Z,17.47
2019-02-28T14:21:21.301Z,17.32
2019-02-28T14:23:47.943Z,17.32
2019-02-28T14:26:14.828Z,17.36
2019-02-28T14:28:41.568Z,17.51
2019-02-28T14:31:07.862Z,17.57
2019-02-28T14:33:33.997Z,17.37
2019-02-28T14:36:00.607Z,17.04
2019-02-28T14:38:29.465Z,17.02
2019-02-28T14:40:55.461Z,17.15
2019-02-28T14:43:21.719Z,17.03
2019-02-28T14:45:48.155Z,17.04
2019-02-28T14:48:14.406Z,17.11
2019-02-28T14:50:40.696Z,17.39
2019-02-28T14:53:13.082Z,17.51
2019-02-28T14:55:37.417Z,17.52
2019-02-28T14:58:03.906Z,17.47
2019-02-28T15:00:31.804Z,17.50
2019-02-28T15:03:02.873Z,17.63
2019-02-28T15:05:32.238Z,17.44
2019-02-28T15:07:58.858Z,16.91
2019-02-28T15:10:27.384Z,16.59
2019-02-28T15:12:55.346Z,16.22
2019-02-28T15:15:22.484Z,16.05
2019-02-28T15:17:48.797Z,15.76
2019-02-28T15:20:15.107Z,15.43
2019-02-28T15:22:41.476Z,15.16
2019-02-28T15:25:27.752Z,14.88
2019-02-28T15:27:54.018Z,14.68
2019-02-28T15:30:34.902Z,14.44
2019-02-28T15:33:01.299Z,14.25
2019-02-28T15:35:27.619Z,14.09
2019-02-28T15:37:53.905Z,13.96
2019-02-28T15:40:29.564Z,13.87
2019-02-28T15:42:55.689Z,13.79
2019-02-28T15:45:21.993Z,13.70
2019-02-28T15:47:48.160Z,13.66
2019-02-28T15:50:17.835Z,13.57
2019-02-28T15:52:45.177Z,13.48
2019-02-28T15:55:13.846Z,13.35
2019-02-28T15:57:40.223Z,13.28
2019-02-28T16:00:15.576Z,13.19
2019-02-28T16:02:43.041Z,13.13
2019-02-28T16:05:09.486Z,13.06
2019-02-28T16:07:35.808Z,12.98
2019-02-28T16:10:02.316Z,12.93
2019-02-28T16:12:28.625Z,12.84
2019-02-28T16:14:55.066Z,12.77
2019-02-28T16:17:21.369Z,12.70
2019-02-28T16:19:47.499Z,12.66
2019-02-28T16:22:14.640Z,12.63
2019-02-28T16:24:42.629Z,12.60
2019-02-28T16:27:09.894Z,12.60
2019-02-28T16:29:36.891Z,12.59
2019-02-28T16:32:07.553Z,12.57
2019-02-28T16:34:34.303Z,12.53
2019-02-28T16:37:01.959Z,12.48
2019-02-28T16:39:28.854Z,12.45
2019-02-28T16:41:56.105Z,12.40
2019-02-28T16:44:22.793Z,12.35
2019-02-28T16:46:51.556Z,12.29
2019-02-28T16:49:18.064Z,12.24
2019-02-28T16:51:45.362Z,12.19
2019-02-28T16:54:12.446Z,12.10
2019-02-28T16:56:39.554Z,12.05
2019-02-28T16:59:07.895Z,11.95
2019-02-28T17:01:34.481Z,11.88
2019-02-28T17:04:01.465Z,11.79
2019-02-28T17:06:28.143Z,11.68
2019-02-28T17:08:56.946Z,11.60
2019-02-28T17:11:23.606Z,11.52
2019-02-28T17:13:52.606Z,11.45
2019-02-28T17:16:20.770Z,11.36
2019-02-28T17:18:47.203Z,11.29
2019-02-28T17:21:18.023Z,11.21
2019-02-28T17:23:45.125Z,11.15
2019-02-28T17:26:12.244Z,11.06
2019-02-28T17:28:51.013Z,10.95
2019-02-28T17:31:34.719Z,10.90
2019-02-28T17:34:01.813Z,10.82
2019-02-28T17:36:28.181Z,10.71
2019-02-28T17:38:55.049Z,10.64
2019-02-28T17:41:22.261Z,10.54
2019-02-28T17:44:22.818Z,10.49
2019-02-28T17:46:52.730Z,10.45
2019-02-28T17:49:35.344Z,10.39
2019-02-28T17:52:19.982Z,10.33
2019-02-28T17:55:02.010Z,10.25
2019-02-28T17:57:36.153Z,10.15
2019-02-28T18:00:06.326Z,10.10
2019-02-28T18:02:54.925Z,10.02
2019-02-28T18:05:41.541Z,9.96
2019-02-28T18:08:19.751Z,9.91
2019-02-28T18:11:15.607Z,9.85
2019-02-28T18:14:12.662Z,9.79
2019-02-28T18:16:58.270Z,9.75
2019-02-28T18:19:33.237Z,9.73
2019-02-28T18:22:31.625Z,9.69
2019-02-28T18:25:01.540Z,9.68
2019-02-28T18:27:43.633Z,9.63
2019-02-28T18:30:29.751Z,9.60
2019-02-28T18:32:56.368Z,9.55
2019-02-28T18:35:22.467Z,9.55
2019-02-28T18:37:49.087Z,9.53
2019-02-28T18:40:15.263Z,9.52
2019-02-28T18:42:41.428Z,9.53
2019-02-28T18:45:09.487Z,9.48
2019-02-28T18:47:39.587Z,9.49
2019-02-28T18:50:05.415Z,9.52
2019-02-28T18:52:31.792Z,9.55
2019-02-28T18:55:05.727Z,9.58
2019-02-28T18:57:26.189Z,9.62
2019-02-28T18:59:52.456Z,9.62
2019-02-28T19:02:18.778Z,9.67
2019-02-28T19:04:44.940Z,9.66
2019-02-28T19:07:11.291Z,9.64
2019-02-28T19:09:37.491Z,9.64
2019-02-28T19:12:03.953Z,9.64
2019-02-28T19:14:30.141Z,9.66
2019-02-28T19:16:56.480Z,9.73
2019-02-28T19:19:22.691Z,9.78
2019-02-28T19:21:49.024Z,9.83
2019-02-28T19:24:15.112Z,9.86
2019-02-28T19:26:41.345Z,9.90
2019-02-28T19:29:07.605Z,9.92
2019-02-28T19:31:33.756Z,9.91
2019-02-28T19:33:59.911Z,9.90
2019-02-28T19:36:26.162Z,9.85
2019-02-28T19:38:52.447Z,9.84
2019-02-28T19:41:18.708Z,9.81
2019-02-28T19:43:44.977Z,9.81
2019-02-28T19:46:11.229Z,9.85
2019-02-28T19:48:37.507Z,9.85
2019-02-28T19:51:03.982Z,9.88
2019-02-28T19:53:30.213Z,9.87
2019-02-28T19:55:56.840Z,9.86
2019-02-28T19:58:23.346Z,9.87
2019-02-28T20:00:49.846Z,9.85
2019-02-28T20:03:16.303Z,9.84
2019-02-28T20:05:42.547Z,9.82
2019-02-28T20:08:09.148Z,9.84
2019-02-28T20:10:35.420Z,9.84
2019-02-28T20:13:02.048Z,9.81
2019-02-28T20:15:30.077Z,9.81
2019-02-28T20:17:56.586Z,9.82
2019-02-28T20:20:25.271Z,9.81
2019-02-28T20:22:51.578Z,9.80
2019-02-28T20:25:18.061Z,9.78
2019-02-28T20:27:44.199Z,9.75
2019-02-28T20:30:15.854Z,9.74
2019-02-28T20:32:42.356Z,9.73
2019-02-28T20:35:09.341Z,9.71
2019-02-28T20:37:35.694Z,9.70
2019-02-28T20:40:07.306Z,9.68
2019-02-28T20:42:33.529Z,9.69
2019-02-28T20:44:59.761Z,9.69
2019-02-28T20:47:25.862Z,9.67
2019-02-28T20:49:53.199Z,9.64
2019-02-28T20:52:19.608Z,9.62
2019-02-28T20:54:46.169Z,9.63
2019-02-28T20:57:12.283Z,9.65
2019-02-28T20:59:38.685Z,9.63
2019-02-28T21:02:05.074Z,9.63
2019-02-28T21:04:31.295Z,9.65
2019-02-28T21:06:57.585Z,9.62
2019-02-28T21:09:24.421Z,9.63
2019-02-28T21:11:50.675Z,9.62
2019-02-28T21:14:17.071Z,9.66
2019-02-28T21:16:43.392Z,9.63
2019-02-28T21:19:10.554Z,9.65
2019-02-28T21:21:36.810Z,9.66
2019-02-28T21:24:03.229Z,9.66
2019-02-28T21:26:29.552Z,9.62
2019-02-28T21:28:55.765Z,9.61
2019-02-28T21:31:22.278Z,9.59
2019-02-28T21:33:48.528Z,9.60
2019-02-28T21:36:15.126Z,9.59
2019-02-28T21:38:41.334Z,9.58
2019-02-28T21:41:07.958Z,9.60
2019-02-28T21:43:34.156Z,9.60
2019-02-28T21:46:00.491Z,9.58
2019-02-28T21:48:26.769Z,9.57
2019-02-28T21:50:53.050Z,9.57
2019-02-28T21:53:19.304Z,9.54
2019-02-28T21:55:45.637Z,9.52
2019-02-28T21:58:11.857Z,9.52
2019-02-28T22:00:38.086Z,9.47
2019-02-28T22:03:04.308Z,9.38
2019-02-28T22:05:30.588Z,9.31
2019-02-28T22:07:57.243Z,9.29
2019-02-28T22:10:23.558Z,9.23
2019-02-28T22:12:49.811Z,9.22
2019-02-28T22:15:20.421Z,9.22
2019-02-28T22:17:49.719Z,9.18
2019-02-28T22:20:16.033Z,9.20
2019-02-28T22:22:42.333Z,9.22
2019-02-28T22:25:10.593Z,9.21
2019-02-28T22:27:36.727Z,9.20
2019-02-28T22:30:26.530Z,9.19
2019-02-28T22:32:54.788Z,9.19
2019-02-28T22:35:23.057Z,9.16
2019-02-28T22:37:49.625Z,9.13
2019-02-28T22:40:15.865Z,9.15
2019-02-28T22:42:42.287Z,9.13
2019-02-28T22:45:08.608Z,9.13
2019-02-28T22:47:34.724Z,9.13
2019-02-28T22:50:01.050Z,9.13
2019-02-28T22:52:28.321Z,9.15
2019-02-28T22:54:54.599Z,9.17
2019-02-28T22:57:20.830Z,9.15
2019-02-28T22:59:47.260Z,9.14
2019-02-28T23:02:13.592Z,9.15
2019-02-28T23:04:39.847Z,9.14
2019-02-28T23:07:06.247Z,9.15
2019-02-28T23:09:32.475Z,9.12
2019-02-28T23:11:58.597Z,9.11
2019-02-28T23:14:24.940Z,9.09
2019-02-28T23:16:51.082Z,9.08
2019-02-28T23:19:17.296Z,9.05
2019-02-28T23:21:43.451Z,9.02
2019-02-28T23:24:09.608Z,9.00
2019-02-28T23:26:57.750Z,9.00
2019-02-28T23:29:25.526Z,9.02
2019-02-28T23:31:58.593Z,9.03
2019-02-28T23:34:28.491Z,9.03
2019-02-28T23:36:54.605Z,9.06
2019-02-28T23:39:20.835Z,9.00
2019-02-28T23:41:46.939Z,8.98
2019-02-28T23:44:13.241Z,9.00
2019-02-28T23:46:39.420Z,8.98
2019-02-28T23:49:05.669Z,8.99
2019-02-28T23:51:32.256Z,8.99
2019-02-28T23:53:58.605Z,8.98
2019-02-28T23:56:24.767Z,8.93
2019-02-28T23:58:50.951Z,8.94
